ADDS METAR Data INFO
IDs: Format: Raw Decoded Include TAF

Data at: 0853 UTC 19 Jun 2018

PAWG 190556Z 31003KT 10SM FEW250 18/12 A3010 RMK AO2 SLP193 T01830117 10239 20183 53001
PAWG 190456Z 07003KT 10SM FEW250 18/12 A3009 RMK (BS)
PAWG 190356Z 26008KT 10SM FEW250 20/13 A3009 RMK AO2 SLP189 T02000128
PAWG 190256Z 28007KT 10SM SCT250 21/13 A3009 RMK AO2 SLP191 T02060133 56010
PAWG 190156Z 28007KT 10SM SCT250 20/13 A3010 RMK AO2 SLP193 T02000128
PAWG 190056Z 30005KT 10SM SCT250 24/13 A3011 RMK AO2 SLP196 T02390133
PAWG 182356Z 30005KT 10SM SCT250 24/13 A3012 RMK AO2 SLP201 T02390128 10244 20178 56007
PAWG 182256Z 30006KT 10SM SCT250 24/14 A3013 RMK (BS)
PAWG 182156Z 29007KT 250V310 10SM SCT250 23/14 A3013 RMK AO2 SLP205 T02280139
PAWG 182056Z VRB05KT 10SM SCT250 22/14 A3015 RMK AO2 SLP208 T02220139 58011
PAWG 181955Z 30006KT 10SM SCT250 21/13 A3017 RMK (KH)
PAWG 181856Z 00000KT 10SM SCT250 19/12 A3018 RMK AO2 SLP220 T01890122
PAWG 181755Z 30003KT 10SM SCT250 18/12 A3018 RMK (KH)
PAWG 181656Z 29005KT 10SM SCT250 17/12 A3018 RMK AO2 SLP221 T01670122
PAWG 181556Z 28004KT 10SM SCT250 16/12 A3018 RMK AO2 SLP221 T01560117
PAWG 181456Z 28004KT 10SM FEW100 SCT250 14/12 A3019 RMK AO2 SLP224 T01390117 58001
PAWG 181356Z 00000KT 10SM CLR 13/11 A3020 RMK AO2 SLP226 T01280111
PAWG 181256Z AUTO 00000KT 10SM CLR 13/11 A3020 RMK AO2 SLP227 T01280106 TSNO
PAWG 181156Z AUTO 28004KT 10SM CLR 13/11 A3019 RMK AO2 SLP225 T01280111 10161 20128 50000 TSNO
PAWG 181056Z AUTO 29005KT 10SM CLR 13/11 A3020 RMK AO2 SLP228 T01330111 TSNO
PAWG 180956Z AUTO 19003KT 10SM CLR 14/12 A3019 RMK AO2 SLP224 T01440117 TSNO
PAWG 180656Z AUTO VRB03KT 10SM FEW050 FEW070 SCT120 16/12 A3021 RMK AO2 SLP230 T01560117 TSNO
PAWG 180556Z 22004KT 10SM FEW050 FEW070 SCT120 16/12 A3021 RMK AO2 SLP230 T01610117 10189 20150 55002
PAWG 180456Z 00000KT 10SM FEW050 FEW070 SCT120 16/12 A3021 RMK (MCQ)
PAWG 180356Z 24006KT 10SM FEW050 FEW070 SCT120 17/12 A3021 RMK (MCQ)
PAWG 180256Z 24009KT 10SM FEW050 FEW070 BKN120 18/12 A3021 RMK AO2 SLP232 T01830117 58005
PAWG 180156Z 26009KT 10SM FEW050 FEW070 BKN120 18/12 A3022 RMK AO2 SLP233 T01830122
PAWG 180056Z 24007KT 10SM FEW050 FEW070 BKN120 18/12 A3023 RMK AO2 SLP236 T01830122
PAWG 172356Z 25007KT 10SM FEW050 FEW070 BKN120 18/12 A3023 RMK AO2 SLP237 T01830122 10189 20139 58003
PAWG 172256Z 25008KT 10SM FEW045 SCT070 BKN090 18/13 A3023 RMK (MCQ)
PAWG 172156Z 25007KT 10SM FEW028 SCT070 BKN090 17/12 A3024 RMK (MCQ)
PAWG 172056Z 26006KT 10SM FEW020 SCT035 SCT090 16/13 A3024 RMK (KB)